• Join FlightAware (Why Join?)
  • Login
  • US Flag 
12:12PM EDT


 

Airport Tracker/Info


-or-


 

Live Flight TrackerFlight Track Log ✈ BOE2 ✈ 29-Apr-2014 ✈ KMWH - KBFI

Flight Track Log - Related Links

Times and Time Zones

All times are in EDT time to prevent confusion due to time zone crossing. See the BOE2 flight status page for this flight to view local times or setup timezone preferences in your user account.

Time Position Orientation Groundspeed Altitude Reporting Facility
EDT Latitude Longitude Course Direction KTS MPH feet Rate Location/Type
06:10PM 47.0136 -119.2258 317° Northwest 247 284 4,500  Level Seattle Center
06:12PM 47.0686 -119.3019 317° Northwest 274 315 7,800 2,820 Climbing Seattle Center
06:13PM 47.1217 -119.3875 312° West 282 325 10,300 1,020 Climbing Seattle Center
06:19PM 47.4811 -120.2580 301° West 413 475 15,400 660 Climbing FlightAware ADS-B
06:20PM 47.5370 -120.3960 301° West 413 475 15,400  Level FlightAware ADS-B
06:21PM 47.5902 -120.5280 301° West 410 472 15,400  Level FlightAware ADS-B
06:21PM 47.6194 -120.6010 301° West 409 471 15,400  Level FlightAware ADS-B
06:22PM 47.6485 -120.6730 301° West 410 472 15,400  Level FlightAware ADS-B
06:22PM 47.6776 -120.7460 301° West 411 473 15,400  Level FlightAware ADS-B
06:22PM 47.6870 -120.7710 298° West 412 474 15,400  Level FlightAware ADS-B
06:22PM 47.6927 -120.7877 296° West 413 475 15,400  Level FlightAware ADS-B
06:22PM 47.7001 -120.8110 294° West 414 476 15,400  Level FlightAware ADS-B
06:23PM 47.7118 -120.8540 290° West 414 476 15,400  Level FlightAware ADS-B
06:23PM 47.7230 -120.9062 287° West 414 476 15,400  Level FlightAware ADS-B
06:23PM 47.7293 -120.9360 287° West 414 476 15,400  Level FlightAware ADS-B
06:24PM 47.7420 -120.9963 287° West 414 476 15,400  Level FlightAware ADS-B
06:24PM 47.7465 -121.0180 287° West 414 476 15,400  Level FlightAware ADS-B
06:24PM 47.7631 -121.0980 287° West 392 451 15,400  Level FlightAware ADS-B
06:24PM 47.7656 -121.1107 287° West 385 443 15,400 180 Level FlightAware ADS-B
06:25PM 47.7786 -121.1730 287° West 376 433 15,500 180 Climbing FlightAware ADS-B
06:25PM 47.7766 -121.1633 287° West 377 434 15,500 -1,980 Level FlightAware ADS-B
06:25PM 47.7939 -121.2480 287° West 371 427 14,500 -2,580 Descending FlightAware ADS-B
06:26PM 47.8049 -121.3022 287° West 376 433 13,500 -2,640 Descending FlightAware ADS-B
06:26PM 47.8090 -121.3220 287° West 375 432 13,200 -2,040 Descending FlightAware ADS-B
06:26PM 47.8094 -121.3239 287° West 368 423 12,500 -1,800 Descending FlightAware ADS-B
06:26PM 47.8240 -121.3950 287° West 367 422 12,300 -1,800 Descending FlightAware ADS-B
06:27PM 47.8347 -121.4479 287° West 361 415 11,600 -1,620 Descending FlightAware ADS-B
06:27PM 47.8386 -121.4670 287° West 357 411 11,500 -720 Descending FlightAware ADS-B
06:27PM 47.8502 -121.5240 287° West 345 397 11,200 -600 Descending FlightAware ADS-B
06:27PM 47.8525 -121.5350 287° West 332 382 11,200 -600 Level FlightAware ADS-B
06:28PM 47.8619 -121.5818 287° West 313 360 10,900 -600 Descending FlightAware ADS-B
06:28PM 47.8655 -121.6000 286° West 311 358 10,900 -720 Level FlightAware ADS-B
06:28PM 47.8755 -121.6500 285° West 297 342 10,600 -600 Descending FlightAware ADS-B
06:28PM 47.8769 -121.6600 279° West 294 338 10,600 -600 Level FlightAware ADS-B
06:28PM 47.8775 -121.6700 273° West 292 336 10,500 -1,680 Descending FlightAware ADS-B
06:28PM 47.8772 -121.6820 265° West 291 335 10,300 -1,500 Descending FlightAware ADS-B
06:29PM 47.8771 -121.6831 263° West 290 334 10,300 -900 Level FlightAware ADS-B (CYVR)
06:29PM 47.8755 -121.6960 257° West 289 333 10,200 -1,200 Descending FlightAware ADS-B
06:29PM 47.8737 -121.7060 252° West 289 333 10,100 -1,020 Descending FlightAware ADS-B
06:29PM 47.8747 -121.7006 251° West 288 331 10,100 -1,200 Level FlightAware ADS-B (CYVR)
06:29PM 47.8710 -121.7150 246° West 287 330 10,000 -1,500 Descending FlightAware ADS-B
06:29PM 47.8685 -121.7220 240° Southwest 287 330 9,900 -1,500 Descending FlightAware ADS-B
06:29PM 47.8659 -121.7270 234° Southwest 286 329 9,800 -1,500 Descending FlightAware ADS-B
06:29PM 47.8621 -121.7330 226° Southwest 286 329 9,700 -900 Descending FlightAware ADS-B
06:29PM 47.8587 -121.7370 219° Southwest 285 328 9,700  Level FlightAware ADS-B
06:29PM 47.8583 -121.7378 219° Southwest 285 328 9,700 -1,500 Level FlightAware ADS-B (KPAE)
06:29PM 47.8543 -121.7420 213° Southwest 283 326 9,600 -900 Descending FlightAware ADS-B
06:29PM 47.8499 -121.7460 210° Southwest 284 327 9,600  Level FlightAware ADS-B
06:29PM 47.8482 -121.7470 208° Southwest 284 327 9,600 -960 Level FlightAware ADS-B
06:29PM 47.8369 -121.7559 207° Southwest 282 325 9,400 -1,200 Descending FlightAware ADS-B (KPAE)
06:29PM 47.8329 -121.7590 207° Southwest 282 325 9,400 -1,440 Level FlightAware ADS-B
06:30PM 47.8199 -121.7690 207° Southwest 283 326 9,100 -1,920 Descending FlightAware ADS-B
06:30PM 47.8152 -121.7722 207° Southwest 284 327 8,900 -1,140 Descending FlightAware ADS-B
06:30PM 47.8016 -121.7820 207° Southwest 284 327 8,800 -840 Descending FlightAware ADS-B
06:30PM 47.7981 -121.7851 207° Southwest 285 328 8,700 -1,200 Descending FlightAware ADS-B
06:30PM 47.7836 -121.7960 207° Southwest 282 325 8,500 -780 Descending FlightAware ADS-B
06:30PM 47.7796 -121.7992 207° Southwest 281 323 8,500 -840 Level FlightAware ADS-B
06:30PM 47.7663 -121.8090 207° Southwest 278 320 8,300 -1,320 Descending FlightAware ADS-B
06:30PM 47.7606 -121.8135 207° Southwest 277 319 8,100 -1,140 Descending FlightAware ADS-B
06:31PM 47.7485 -121.8230 207° Southwest 276 318 8,000 -1,380 Descending FlightAware ADS-B
06:31PM 47.7309 -121.8360 208° Southwest 274 315 7,600 -1,440 Descending FlightAware ADS-B
06:31PM 47.7206 -121.8443 208° Southwest 274 315 7,400 -900 Descending FlightAware ADS-B (KPAE)
06:31PM 47.7156 -121.8480 208° Southwest 273 314 7,400 -720 Level FlightAware ADS-B
06:31PM 47.7100 -121.8520 205° Southwest 272 313 7,300 -1,800 Descending FlightAware ADS-B
06:31PM 47.7037 -121.8560 202° Southwest 271 312 7,100 -1,740 Descending FlightAware ADS-B
06:31PM 47.7053 -121.8551 201° Southwest 272 313 7,100 -1,140 Level FlightAware ADS-B
06:31PM 47.6910 -121.8630 199° South 271 312 6,900 -1,140 Descending FlightAware ADS-B
06:32PM 47.6857 -121.8655 199° South 271 312 6,800 -1,620 Descending FlightAware ADS-B
06:32PM 47.6734 -121.8720 199° South 270 311 6,500 -1,680 Descending FlightAware ADS-B
06:32PM 47.6563 -121.8800 199° South 270 311 6,200 -1,500 Descending FlightAware ADS-B
06:32PM 47.6516 -121.8825 199° South 271 312 6,000 -1,500 Descending FlightAware ADS-B (KPAE)
06:32PM 47.6380 -121.8890 199° South 273 314 5,800 -960 Descending FlightAware ADS-B
06:32PM 47.6299 -121.8934 199° South 274 315 5,700 -840 Descending FlightAware ADS-B
06:32PM 47.6197 -121.8980 198° South 275 316 5,600 -720 Descending FlightAware ADS-B
06:33PM 47.6075 -121.9044 199° South 272 313 5,500 -420 Descending FlightAware ADS-B (KPAE)
06:33PM 47.6015 -121.9070 199° South 272 313 5,500  Level FlightAware ADS-B
06:33PM 47.5954 -121.9100 200° South 268 308 5,500  Level FlightAware ADS-B
06:33PM 47.5911 -121.9130 204° Southwest 266 306 5,500  Level FlightAware ADS-B
06:33PM 47.5867 -121.9170 209° Southwest 267 307 5,500 840 Level FlightAware ADS-B
06:33PM 47.5831 -121.9200 211° Southwest 267 307 5,600  Climbing FlightAware ADS-B
06:33PM 47.5790 -121.9240 214° Southwest 268 308 5,500 -540 Descending FlightAware ADS-B
06:33PM 47.5713 -121.9320 218° Southwest 267 307 5,500  Level FlightAware ADS-B
06:33PM 47.5603 -121.9454 219° Southwest 267 307 5,500  Level FlightAware ADS-B (KPAE)
06:33PM 47.5565 -121.9500 219° Southwest 266 306 5,500 -960 Level FlightAware ADS-B
06:34PM 47.5419 -121.9680 219° Southwest 266 306 5,200 -1,140 Descending FlightAware ADS-B
06:34PM 47.5482 -121.9600 219° Southwest 267 307 5,200 -1,200 Level FlightAware ADS-B (KPAE)
06:34PM 47.5277 -121.9850 219° Southwest 265 305 4,900 -1,200 Descending FlightAware ADS-B
06:34PM 47.5222 -121.9915 220° Southwest 264 304 4,800 -1,200 Descending FlightAware ADS-B (KPAE)
06:34PM 47.5134 -122.0020 220° Southwest 264 304 4,600 -1,380 Descending FlightAware ADS-B
06:34PM 47.5047 -122.0130 219° Southwest 264 304 4,400 -1,140 Descending FlightAware ADS-B
06:34PM 47.5030 -122.0149 219° Southwest 265 305 4,400 -1,620 Level FlightAware ADS-B (KPAE)
06:35PM 47.4905 -122.0300 219° Southwest 266 306 4,000 -1,500 Descending FlightAware ADS-B
06:35PM 47.4846 -122.0368 219° Southwest 262 302 3,900 -540 Descending FlightAware ADS-B (KPAE)
06:35PM 47.4791 -122.0430 219° Southwest 260 299 3,900 -300 Level FlightAware ADS-B
06:35PM 47.4715 -122.0525 219° Southwest 249 287 3,800 -480 Descending FlightAware ADS-B (KPAE)
06:35PM 47.4541 -122.0730 219° Southwest 244 281 3,700 -300 Descending FlightAware ADS-B
06:35PM 47.4480 -122.0807 219° Southwest 239 275 3,700  Level FlightAware ADS-B (KPAE)
06:35PM 47.4411 -122.0890 219° Southwest 232 267 3,700  Level FlightAware ADS-B
06:36PM 47.4324 -122.0990 218° Southwest 226 260 3,700  Level FlightAware ADS-B
06:36PM 47.4451 -122.0842 219° Southwest 225 259 3,700 600 Level FlightAware ADS-B (KPAE)
06:36PM 47.4240 -122.1090 218° Southwest 218 251 3,800 240 Climbing FlightAware ADS-B
06:36PM 47.4144 -122.1210 219° Southwest 209 241 3,800 -300 Level FlightAware ADS-B
06:36PM 47.4075 -122.1290 220° Southwest 208 239 3,700 -360 Descending FlightAware ADS-B
06:36PM 47.4000 -122.1380 221° Southwest 208 239 3,700 -480 Level FlightAware ADS-B
06:36PM 47.3973 -122.1420 227° Southwest 205 236 3,600 -780 Descending FlightAware ADS-B
06:37PM 47.3949 -122.1470 235° Southwest 205 236 3,600 -780 Level FlightAware ADS-B
06:37PM 47.3935 -122.1510 245° Southwest 204 235 3,500 -900 Descending FlightAware ADS-B
06:37PM 47.3925 -122.1560 254° West 203 234 3,500 -1,020 Level FlightAware ADS-B
06:37PM 47.3920 -122.1600 262° West 204 235 3,400 -1,740 Descending FlightAware ADS-B
06:37PM 47.3921 -122.1650 274° West 205 236 3,300 -1,500 Descending FlightAware ADS-B
06:37PM 47.3929 -122.1700 286° West 205 236 3,200 -900 Descending FlightAware ADS-B
06:37PM 47.3940 -122.1740 293° West 203 234 3,200  Level FlightAware ADS-B
06:37PM 47.3957 -122.1790 299° West 201 231 3,200 -480 Level FlightAware ADS-B
06:37PM 47.4001 -122.1890 303° West 190 219 3,100 -1,020 Descending FlightAware ADS-B
06:37PM 47.4016 -122.1930 306° West 187 215 3,000 -780 Descending FlightAware ADS-B
06:37PM 47.4042 -122.1960 317° Northwest 182 209 3,000 -780 Level FlightAware ADS-B
06:37PM 47.4067 -122.1990 326° Northwest 179 206 2,900 -1,440 Descending FlightAware ADS-B
06:37PM 47.4162 -122.2080 327° Northwest 174 200 2,600 -1,440 Descending FlightAware ADS-B
06:38PM 47.4208 -122.2120 329° Northwest 172 198 2,400 -1,500 Descending FlightAware ADS-B
06:38PM 47.4296 -122.2200 330° Northwest 164 189 2,100 -1,200 Descending FlightAware ADS-B
06:38PM 47.4348 -122.2240 331° Northwest 164 189 2,000 -1,200 Descending FlightAware ADS-B
06:38PM 47.4394 -122.2280 332° Northwest 165 190 1,800 -1,620 Descending FlightAware ADS-B
06:38PM 47.4451 -122.2320 334° Northwest 164 189 1,600 -1,620 Descending FlightAware ADS-B
06:38PM 47.4497 -122.2360 333° Northwest 161 185 1,400 -1,620 Descending FlightAware ADS-B
06:39PM 47.4577 -122.2420 332° Northwest 160 184 1,100 -1,620 Descending FlightAware ADS-B
06:39PM 47.4623 -122.2450 330° Northwest 160 184 900 -1,500 Descending FlightAware ADS-B
06:39PM 47.4678 -122.2500 330° Northwest 158 182 700 -720 Descending FlightAware ADS-B
06:39PM 47.4726 -122.2540 331° Northwest 158 182 700 -600 Level FlightAware ADS-B
06:39PM 47.4806 -122.2610 330° Northwest 151 174 500 -300 Descending FlightAware ADS-B
06:40PM 47.5056 -122.2831 330° Northwest 150 173 400 -240 Descending Seattle Center
06:41PM 47.5392 -122.3100 332° Northwest 146 168 100 -300 Descending Seattle Center
06:43PM 47.5300 -122.3020 180° South  Level Estimated